createdAt,value
2023-12-15T00:00:41.988Z,10.93
2023-12-15T00:03:10.528Z,10.40
2023-12-15T00:05:40.454Z,10.23
2023-12-15T00:08:09.070Z,8.50
2023-12-15T00:10:37.434Z,8.77
2023-12-15T00:13:05.873Z,8.73
2023-12-15T00:15:34.178Z,8.10
2023-12-15T00:18:02.799Z,8.53
2023-12-15T00:20:31.384Z,7.83
2023-12-15T00:23:01.165Z,7.93
2023-12-15T00:25:29.659Z,6.83
2023-12-15T00:27:59.081Z,7.03
2023-12-15T00:30:28.214Z,6.67
2023-12-15T00:32:56.865Z,7.10
2023-12-15T00:35:25.720Z,7.30
2023-12-15T00:37:58.416Z,6.70
2023-12-15T00:40:28.531Z,8.40
2023-12-15T00:43:01.284Z,7.97
2023-12-15T00:45:33.108Z,7.30
2023-12-15T00:48:01.612Z,9.97
2023-12-15T00:50:31.494Z,8.27
2023-12-15T00:53:00.084Z,8.43
2023-12-15T00:55:30.346Z,9.80
2023-12-15T00:57:57.768Z,10.00
2023-12-15T01:00:26.330Z,10.37
2023-12-15T01:02:54.963Z,9.97
2023-12-15T01:05:24.243Z,12.43
2023-12-15T01:07:53.045Z,17.43
2023-12-15T01:10:21.318Z,16.47
2023-12-15T01:12:51.078Z,17.50
2023-12-15T01:15:19.538Z,21.73
2023-12-15T01:17:48.146Z,19.47
2023-12-15T01:20:18.150Z,19.53
2023-12-15T01:22:49.717Z,17.63
2023-12-15T01:25:18.254Z,19.60
2023-12-15T01:27:51.625Z,17.67
2023-12-15T01:30:20.320Z,15.10
2023-12-15T01:32:49.034Z,15.03
2023-12-15T01:35:17.749Z,14.00
2023-12-15T01:37:46.920Z,15.30
2023-12-15T01:40:15.666Z,13.47
2023-12-15T01:42:44.175Z,15.40
2023-12-15T01:45:14.245Z,14.27
2023-12-15T01:47:43.336Z,14.17
2023-12-15T01:50:12.619Z,16.30
2023-12-15T01:52:41.019Z,12.73
2023-12-15T01:55:09.960Z,18.77
2023-12-15T01:57:38.847Z,18.40
2023-12-15T02:00:09.729Z,19.30
2023-12-15T02:02:42.477Z,21.90
2023-12-15T02:05:11.330Z,16.03
2023-12-15T02:07:41.439Z,15.17
2023-12-15T02:10:09.978Z,17.53
2023-12-15T02:12:38.445Z,17.33
2023-12-15T02:15:10.522Z,20.20
2023-12-15T02:17:39.856Z,15.43
2023-12-15T02:20:10.553Z,14.97
2023-12-15T02:22:40.750Z,15.60
2023-12-15T02:25:09.888Z,14.20
2023-12-15T02:27:38.477Z,14.80
2023-12-15T02:30:08.252Z,15.43
2023-12-15T02:32:36.830Z,16.53
2023-12-15T02:35:05.866Z,15.43
2023-12-15T02:37:34.567Z,14.07
2023-12-15T02:40:04.927Z,14.73
2023-12-15T02:42:33.236Z,13.53
2023-12-15T02:45:02.959Z,16.03
2023-12-15T02:47:31.674Z,16.60
2023-12-15T02:50:00.572Z,15.40
2023-12-15T02:52:29.368Z,15.67
2023-12-15T02:54:58.113Z,15.33
2023-12-15T02:57:28.567Z,14.73
2023-12-15T02:59:57.125Z,14.90
2023-12-15T03:02:25.579Z,16.50
2023-12-15T03:04:54.088Z,16.17
2023-12-15T03:07:22.647Z,14.30
2023-12-15T03:09:51.357Z,15.50
2023-12-15T03:12:19.863Z,13.90
2023-12-15T03:14:50.423Z,16.03
2023-12-15T03:17:18.968Z,18.13
2023-12-15T03:19:47.491Z,11.97
2023-12-15T03:22:16.067Z,15.97
2023-12-15T03:24:47.157Z,15.33
2023-12-15T03:27:15.824Z,18.47
2023-12-15T03:29:46.371Z,16.90
2023-12-15T03:32:16.323Z,17.43
2023-12-15T03:34:45.254Z,14.90
2023-12-15T03:37:13.839Z,15.63
2023-12-15T03:39:42.471Z,15.93
2023-12-15T03:42:11.105Z,16.93
2023-12-15T03:44:40.892Z,15.63
2023-12-15T03:47:10.777Z,14.53
2023-12-15T03:49:40.488Z,17.10
2023-12-15T03:52:09.010Z,14.67
2023-12-15T03:54:37.388Z,16.50
2023-12-15T03:57:06.300Z,14.97
2023-12-15T03:59:34.870Z,14.50
2023-12-15T04:02:03.533Z,15.00
2023-12-15T04:04:31.826Z,15.30
2023-12-15T04:07:01.926Z,13.93
2023-12-15T04:09:30.781Z,14.53
2023-12-15T04:11:59.429Z,15.13
2023-12-15T04:14:28.284Z,15.10
2023-12-15T04:16:56.708Z,14.47
2023-12-15T04:19:25.215Z,15.47
2023-12-15T04:21:53.761Z,17.60
2023-12-15T04:24:23.838Z,19.07
2023-12-15T04:26:52.189Z,18.63
2023-12-15T04:29:20.652Z,15.50
2023-12-15T04:31:49.077Z,17.17
2023-12-15T04:34:17.519Z,14.03
2023-12-15T04:36:46.619Z,17.67
2023-12-15T04:39:15.292Z,16.97
2023-12-15T04:41:47.568Z,18.77
2023-12-15T04:44:15.876Z,18.03
2023-12-15T04:46:44.932Z,19.93
2023-12-15T04:49:13.468Z,17.40
2023-12-15T04:51:42.362Z,16.80
2023-12-15T04:54:10.873Z,15.87
2023-12-15T04:56:39.304Z,18.53
2023-12-15T04:59:09.258Z,18.03
2023-12-15T05:01:37.669Z,24.03
2023-12-15T05:04:06.844Z,21.57
2023-12-15T05:06:36.356Z,20.03
2023-12-15T05:09:06.445Z,21.70
2023-12-15T05:11:36.653Z,18.87
2023-12-15T05:14:05.233Z,15.67
2023-12-15T05:16:34.944Z,15.80
2023-12-15T05:19:03.744Z,17.27
2023-12-15T05:21:32.221Z,17.77
2023-12-15T05:24:00.973Z,17.03
2023-12-15T05:26:29.620Z,20.47
2023-12-15T05:29:00.080Z,23.73
2023-12-15T05:31:28.501Z,20.17
2023-12-15T05:33:58.347Z,19.17
2023-12-15T05:36:26.766Z,20.10
2023-12-15T05:38:55.437Z,19.27
2023-12-15T05:41:24.821Z,19.67
2023-12-15T05:43:53.424Z,21.00
2023-12-15T05:46:22.012Z,21.63
2023-12-15T05:48:50.732Z,16.73
2023-12-15T05:51:20.805Z,20.23
2023-12-15T05:53:55.557Z,16.93
2023-12-15T05:56:26.805Z,17.67
2023-12-15T05:58:55.293Z,17.73
2023-12-15T06:01:23.756Z,22.97
2023-12-15T06:03:52.242Z,20.97
2023-12-15T06:06:21.974Z,24.03
2023-12-15T06:08:50.695Z,21.40
2023-12-15T06:11:19.714Z,18.27
2023-12-15T06:13:48.643Z,20.30
2023-12-15T06:16:20.559Z,20.73
2023-12-15T06:18:49.770Z,24.73
2023-12-15T06:21:26.899Z,18.27
2023-12-15T06:23:55.819Z,21.43
2023-12-15T06:26:27.166Z,24.70
2023-12-15T06:28:56.151Z,19.73
2023-12-15T06:31:27.313Z,19.80
2023-12-15T06:33:56.293Z,21.33
2023-12-15T06:36:30.408Z,21.83
2023-12-15T06:38:59.474Z,19.27
2023-12-15T06:41:28.528Z,22.80
2023-12-15T06:43:57.021Z,21.47
2023-12-15T06:46:25.337Z,20.17
2023-12-15T06:48:54.733Z,19.27
2023-12-15T06:51:23.218Z,23.63
2023-12-15T06:53:53.239Z,22.77
2023-12-15T06:56:21.604Z,23.53
2023-12-15T06:58:50.173Z,19.97
2023-12-15T07:01:20.065Z,23.43
2023-12-15T07:03:50.552Z,23.47
2023-12-15T07:06:19.744Z,24.43
2023-12-15T07:08:51.922Z,24.27
2023-12-15T07:11:21.824Z,23.43
2023-12-15T07:13:50.346Z,23.23
2023-12-15T07:16:19.281Z,21.67
2023-12-15T07:18:47.895Z,26.60
2023-12-15T07:21:16.568Z,29.00
2023-12-15T07:23:45.602Z,25.07
2023-12-15T07:26:14.045Z,24.10
2023-12-15T07:28:44.030Z,23.97
2023-12-15T07:31:12.842Z,24.07
2023-12-15T07:33:41.592Z,26.13
2023-12-15T07:36:11.861Z,23.40
2023-12-15T07:38:40.668Z,24.17
2023-12-15T07:41:09.918Z,22.67
2023-12-15T07:43:40.198Z,26.70
2023-12-15T07:46:17.879Z,24.27
2023-12-15T07:48:52.531Z,23.80
2023-12-15T07:51:22.449Z,20.53
2023-12-15T07:53:51.312Z,29.33
2023-12-15T07:56:23.985Z,22.87
2023-12-15T07:58:53.172Z,26.73
2023-12-15T08:01:23.999Z,25.90
2023-12-15T08:03:52.848Z,22.43
2023-12-15T08:06:21.582Z,23.47
2023-12-15T08:08:50.701Z,24.53
2023-12-15T08:11:19.208Z,26.70
2023-12-15T08:13:48.141Z,22.60
2023-12-15T08:16:16.778Z,25.00
2023-12-15T08:18:46.968Z,30.40
2023-12-15T08:21:15.542Z,31.67
2023-12-15T08:23:44.534Z,27.93
2023-12-15T08:26:22.139Z,25.40
2023-12-15T08:28:50.847Z,26.97
2023-12-15T08:31:19.356Z,24.17
2023-12-15T08:33:49.502Z,28.33
2023-12-15T08:36:18.011Z,29.40
2023-12-15T08:38:49.631Z,29.33
2023-12-15T08:41:18.264Z,26.67
2023-12-15T08:43:47.077Z,26.93
2023-12-15T08:46:15.695Z,32.07
2023-12-15T08:48:45.170Z,33.17
2023-12-15T08:51:15.018Z,32.30
2023-12-15T08:53:45.947Z,36.37
2023-12-15T08:56:14.662Z,31.13
2023-12-15T08:58:43.063Z,35.90
2023-12-15T09:01:12.649Z,33.47
2023-12-15T09:03:41.334Z,34.53
2023-12-15T09:06:25.712Z,36.83
2023-12-15T09:08:58.908Z,39.90
2023-12-15T09:11:28.026Z,37.97
2023-12-15T09:13:57.008Z,34.43
2023-12-15T09:16:25.658Z,35.07
2023-12-15T09:18:54.273Z,34.57
2023-12-15T09:21:22.805Z,37.73
2023-12-15T09:23:51.532Z,34.33
2023-12-15T09:26:21.604Z,34.70
2023-12-15T09:28:50.035Z,36.23
2023-12-15T09:31:18.681Z,32.33
2023-12-15T09:33:47.689Z,33.20
2023-12-15T09:36:17.060Z,34.53
2023-12-15T09:38:46.378Z,34.57
2023-12-15T09:41:15.601Z,33.07
2023-12-15T09:43:45.575Z,33.13
2023-12-15T09:46:14.435Z,38.97
2023-12-15T09:48:46.063Z,37.33
2023-12-15T09:51:21.223Z,36.77
2023-12-15T09:53:49.602Z,36.23
2023-12-15T09:56:18.678Z,33.83
2023-12-15T09:58:49.011Z,35.47
2023-12-15T10:01:17.935Z,34.33
2023-12-15T10:03:47.081Z,32.70
2023-12-15T10:06:16.138Z,34.10
2023-12-15T10:08:58.579Z,31.07
2023-12-15T10:11:35.231Z,31.80
2023-12-15T10:14:08.895Z,35.17
2023-12-15T10:16:38.148Z,32.67
2023-12-15T10:19:07.850Z,34.80
2023-12-15T10:21:37.947Z,36.97
2023-12-15T10:24:21.462Z,32.67
2023-12-15T10:26:50.393Z,35.17
2023-12-15T10:29:22.868Z,38.20
2023-12-15T10:31:52.532Z,35.73
2023-12-15T10:34:23.849Z,32.23
2023-12-15T10:36:53.268Z,38.77
2023-12-15T10:39:23.518Z,38.30
2023-12-15T10:41:54.320Z,34.47
2023-12-15T10:44:26.709Z,33.57
2023-12-15T10:46:55.228Z,41.63
2023-12-15T10:49:27.127Z,37.33
2023-12-15T10:52:01.412Z,39.40
2023-12-15T10:54:34.237Z,34.37
2023-12-15T10:57:04.026Z,39.10
2023-12-15T10:59:33.959Z,37.93
2023-12-15T11:02:02.667Z,39.17
2023-12-15T11:04:31.061Z,38.43
2023-12-15T11:07:00.641Z,36.53
2023-12-15T11:09:42.649Z,37.37
2023-12-15T11:12:25.218Z,40.23
2023-12-15T11:14:56.528Z,33.57
2023-12-15T11:17:27.294Z,37.80
2023-12-15T11:20:00.895Z,32.77
2023-12-15T11:22:31.298Z,35.23
2023-12-15T11:24:59.679Z,37.90
2023-12-15T11:27:28.260Z,31.17
2023-12-15T11:29:58.868Z,33.80
2023-12-15T11:32:30.763Z,37.53
2023-12-15T11:35:00.478Z,30.60
2023-12-15T11:37:30.066Z,36.60
2023-12-15T11:40:01.771Z,31.57
2023-12-15T11:42:31.097Z,32.80
2023-12-15T11:45:01.925Z,36.30
2023-12-15T11:47:32.152Z,33.27
2023-12-15T11:50:05.356Z,30.27
2023-12-15T11:52:33.955Z,32.13
2023-12-15T11:55:02.527Z,34.03
2023-12-15T11:57:31.502Z,34.53
2023-12-15T12:00:01.973Z,34.33
2023-12-15T12:02:31.779Z,31.43
2023-12-15T12:05:00.959Z,33.97
2023-12-15T12:07:29.559Z,34.67
2023-12-15T12:09:59.080Z,36.17
2023-12-15T12:12:29.572Z,41.23
2023-12-15T12:15:07.230Z,34.13
2023-12-15T12:17:35.971Z,37.43
2023-12-15T12:20:08.265Z,36.57
2023-12-15T12:22:38.551Z,35.67
2023-12-15T12:25:08.184Z,36.90
2023-12-15T12:27:38.272Z,35.53
2023-12-15T12:30:13.769Z,35.90
2023-12-15T12:32:43.410Z,34.17
2023-12-15T12:35:12.428Z,34.33
2023-12-15T12:37:41.022Z,38.47
2023-12-15T12:40:11.433Z,35.80
2023-12-15T12:42:40.403Z,36.57
2023-12-15T12:45:11.734Z,38.17
2023-12-15T12:47:43.046Z,33.70
2023-12-15T12:50:12.989Z,37.00
2023-12-15T12:52:41.682Z,34.93
2023-12-15T12:55:10.566Z,33.40
2023-12-15T12:57:41.616Z,34.77
2023-12-15T13:00:15.155Z,33.47
2023-12-15T13:02:43.948Z,34.80
2023-12-15T13:05:12.774Z,39.97
2023-12-15T13:07:41.561Z,39.10
2023-12-15T13:10:17.571Z,40.30
2023-12-15T13:12:53.427Z,38.37
2023-12-15T13:15:23.629Z,41.30
2023-12-15T13:17:55.220Z,42.93
2023-12-15T13:20:24.999Z,38.43
2023-12-15T13:22:54.177Z,43.70
2023-12-15T13:25:22.936Z,40.70
2023-12-15T13:27:52.990Z,41.53
2023-12-15T13:30:22.936Z,37.87
2023-12-15T13:32:51.643Z,44.73
2023-12-15T13:35:20.393Z,38.67
2023-12-15T13:37:48.847Z,36.83
2023-12-15T13:40:19.443Z,37.83
2023-12-15T13:42:48.988Z,36.57
2023-12-15T13:45:19.400Z,36.20
2023-12-15T13:47:50.143Z,35.47
2023-12-15T13:50:23.202Z,37.07
2023-12-15T13:52:52.964Z,35.47
2023-12-15T13:55:21.648Z,38.13
2023-12-15T13:57:52.332Z,34.80
2023-12-15T14:00:22.780Z,33.97
2023-12-15T14:02:52.957Z,33.67
2023-12-15T14:05:22.482Z,32.17
2023-12-15T14:07:51.656Z,33.93
2023-12-15T14:10:20.583Z,32.60
2023-12-15T14:12:49.340Z,35.40
2023-12-15T14:15:18.423Z,34.40
2023-12-15T14:17:47.501Z,34.43
2023-12-15T14:20:18.472Z,36.63
2023-12-15T14:22:47.266Z,32.67
2023-12-15T14:25:15.926Z,36.87
2023-12-15T14:27:44.557Z,34.00
2023-12-15T14:30:13.288Z,40.20
2023-12-15T14:32:42.461Z,34.47
2023-12-15T14:35:11.534Z,32.50
2023-12-15T14:37:42.430Z,36.77
2023-12-15T14:40:14.090Z,33.80
2023-12-15T14:42:42.555Z,33.23
2023-12-15T14:45:11.721Z,32.83
2023-12-15T14:47:40.845Z,30.83
2023-12-15T14:50:11.354Z,33.93
2023-12-15T14:52:42.209Z,29.27
2023-12-15T14:55:11.173Z,36.20
2023-12-15T14:57:39.870Z,29.77
2023-12-15T15:00:09.728Z,28.60
2023-12-15T15:02:38.779Z,33.60
2023-12-15T15:05:08.317Z,29.10
2023-12-15T15:07:38.201Z,31.13
2023-12-15T15:10:09.449Z,38.23
2023-12-15T15:12:38.317Z,35.57
2023-12-15T15:15:07.837Z,31.17
2023-12-15T15:17:37.231Z,32.63
2023-12-15T15:20:07.296Z,32.53
2023-12-15T15:22:35.929Z,31.70
2023-12-15T15:25:04.997Z,30.70
2023-12-15T15:27:35.228Z,31.50
2023-12-15T15:30:06.038Z,28.90
2023-12-15T15:32:34.895Z,32.50
2023-12-15T15:37:37.984Z,30.60
2023-12-15T15:40:08.164Z,29.83
2023-12-15T15:42:38.029Z,29.63
2023-12-15T15:45:07.195Z,25.13
2023-12-15T15:47:35.919Z,26.30
2023-12-15T15:50:05.899Z,26.47
2023-12-15T15:52:34.393Z,25.57
2023-12-15T15:55:03.019Z,28.67
2023-12-15T15:57:30.759Z,32.00
2023-12-15T16:00:01.306Z,28.93
2023-12-15T16:02:39.552Z,25.07
2023-12-15T16:05:09.695Z,30.30
2023-12-15T16:07:38.666Z,26.17
2023-12-15T16:10:08.360Z,27.27
2023-12-15T16:12:37.161Z,25.83
2023-12-15T16:15:08.832Z,24.80
2023-12-15T16:17:38.408Z,24.43
2023-12-15T16:20:09.185Z,23.77
2023-12-15T16:22:40.445Z,26.23
2023-12-15T16:25:10.051Z,23.93
2023-12-15T16:27:39.404Z,25.67
2023-12-15T16:30:11.259Z,25.33
2023-12-15T16:32:39.957Z,23.27
2023-12-15T16:35:09.184Z,25.07
2023-12-15T16:37:38.138Z,23.40
2023-12-15T16:40:08.961Z,24.53
2023-12-15T16:42:45.633Z,22.20
2023-12-15T16:45:16.389Z,24.37
2023-12-15T16:47:46.627Z,28.40
2023-12-15T16:50:15.681Z,26.17
2023-12-15T16:52:44.189Z,22.60
2023-12-15T16:55:12.938Z,21.70
2023-12-15T16:57:43.029Z,23.53
2023-12-15T17:00:12.714Z,24.77
2023-12-15T17:02:43.051Z,22.60
2023-12-15T17:05:11.758Z,23.43
2023-12-15T17:07:40.664Z,21.13
2023-12-15T17:10:10.886Z,24.10
2023-12-15T17:12:40.953Z,22.30
2023-12-15T17:15:10.655Z,21.73
2023-12-15T17:17:40.127Z,24.10
2023-12-15T17:20:12.641Z,22.20
2023-12-15T17:22:41.394Z,23.37
2023-12-15T17:25:10.466Z,23.13
2023-12-15T17:27:40.037Z,23.20
2023-12-15T17:30:10.773Z,23.17
2023-12-15T17:32:39.268Z,24.27
2023-12-15T17:35:10.617Z,26.30
2023-12-15T17:37:40.873Z,24.77
2023-12-15T17:40:11.450Z,24.27
2023-12-15T17:42:40.186Z,27.03
2023-12-15T17:45:10.863Z,27.63
2023-12-15T17:47:39.931Z,24.57
2023-12-15T17:50:09.915Z,25.77
2023-12-15T17:52:39.833Z,24.63
2023-12-15T17:55:08.801Z,28.20
2023-12-15T17:57:37.845Z,30.00
2023-12-15T18:00:07.796Z,27.83
2023-12-15T18:02:36.316Z,28.83
2023-12-15T18:05:05.376Z,27.07
2023-12-15T18:07:33.890Z,30.60
2023-12-15T18:10:03.879Z,28.23
2023-12-15T18:12:32.709Z,26.50
2023-12-15T18:15:01.234Z,27.00
2023-12-15T18:17:29.918Z,31.73
2023-12-15T18:19:58.544Z,40.80
2023-12-15T18:22:28.196Z,29.93
2023-12-15T18:24:57.082Z,30.23
2023-12-15T18:27:27.056Z,30.37
2023-12-15T18:29:58.387Z,33.13
2023-12-15T18:32:27.104Z,31.80
2023-12-15T18:34:55.887Z,30.07
2023-12-15T18:37:24.502Z,34.10
2023-12-15T18:39:54.625Z,31.30
2023-12-15T18:42:24.471Z,29.50
2023-12-15T18:44:54.592Z,31.87
2023-12-15T18:47:23.191Z,30.47
2023-12-15T18:49:51.948Z,32.63
2023-12-15T18:52:20.964Z,31.23
2023-12-15T18:54:49.692Z,28.03
2023-12-15T18:57:18.346Z,32.57
2023-12-15T18:59:47.107Z,29.20
2023-12-15T19:02:17.551Z,30.47
2023-12-15T19:04:46.826Z,32.67
2023-12-15T19:07:15.479Z,29.83
2023-12-15T19:09:44.858Z,30.50
2023-12-15T19:12:13.450Z,28.80
2023-12-15T19:14:42.810Z,31.77
2023-12-15T19:17:11.708Z,31.33
2023-12-15T19:19:44.512Z,32.57
2023-12-15T19:22:14.550Z,31.40
2023-12-15T19:24:43.276Z,33.73
2023-12-15T19:27:11.698Z,34.57
2023-12-15T19:29:40.343Z,30.67
2023-12-15T19:32:08.932Z,33.73
2023-12-15T19:34:37.957Z,32.13
2023-12-15T19:37:08.492Z,34.53
2023-12-15T19:39:37.697Z,30.60
2023-12-15T19:42:07.150Z,35.67
2023-12-15T19:44:37.195Z,32.13
2023-12-15T19:47:06.165Z,33.20
2023-12-15T19:49:35.032Z,32.60
2023-12-15T19:52:04.664Z,33.83
2023-12-15T19:54:34.756Z,37.30
2023-12-15T19:57:03.347Z,42.60
2023-12-15T19:59:32.584Z,36.60
2023-12-15T20:02:04.556Z,34.23
2023-12-15T20:04:36.207Z,33.50
2023-12-15T20:07:04.890Z,31.77
2023-12-15T20:09:34.815Z,32.27
2023-12-15T20:12:07.425Z,35.67
2023-12-15T20:14:35.948Z,37.50
2023-12-15T20:17:04.634Z,33.23
2023-12-15T20:19:33.349Z,32.97
2023-12-15T20:22:02.827Z,33.27
2023-12-15T20:24:32.743Z,38.10
2023-12-15T20:27:02.925Z,38.03
2023-12-15T20:29:31.455Z,35.77
2023-12-15T20:32:00.281Z,39.60
2023-12-15T20:34:29.757Z,36.70
2023-12-15T20:36:58.506Z,37.63
2023-12-15T20:39:27.522Z,37.33
2023-12-15T20:41:56.276Z,34.67
2023-12-15T20:44:28.128Z,40.23
2023-12-15T20:46:57.015Z,36.30
2023-12-15T20:49:26.501Z,40.27
2023-12-15T20:51:57.428Z,39.27
2023-12-15T20:54:26.591Z,39.47
2023-12-15T20:56:55.354Z,41.30
2023-12-15T20:59:25.251Z,38.27
2023-12-15T21:01:54.183Z,38.80
2023-12-15T21:04:22.837Z,41.17
2023-12-15T21:06:51.287Z,40.43
2023-12-15T21:09:20.394Z,40.77
2023-12-15T21:11:49.666Z,42.10
2023-12-15T21:14:18.263Z,47.10
2023-12-15T21:16:48.106Z,42.07
2023-12-15T21:19:17.015Z,46.30
2023-12-15T21:21:47.055Z,44.27
2023-12-15T21:24:15.690Z,43.27
2023-12-15T21:26:44.258Z,46.97
2023-12-15T21:29:13.137Z,45.93
2023-12-15T21:31:41.947Z,45.17
2023-12-15T21:34:12.725Z,47.13
2023-12-15T21:36:44.178Z,46.93
2023-12-15T21:39:13.118Z,48.47
2023-12-15T21:41:41.996Z,47.33
2023-12-15T21:44:10.668Z,42.27
2023-12-15T21:46:40.110Z,47.20
2023-12-15T21:49:09.706Z,47.63
2023-12-15T21:51:41.130Z,46.40
2023-12-15T21:54:10.693Z,47.77
2023-12-15T21:56:39.427Z,46.17
2023-12-15T21:59:08.240Z,46.23
2023-12-15T22:01:36.901Z,48.63
2023-12-15T22:04:08.761Z,49.73
2023-12-15T22:06:37.624Z,51.63
2023-12-15T22:09:10.395Z,49.87
2023-12-15T22:11:38.986Z,50.93
2023-12-15T22:14:07.498Z,52.07
2023-12-15T22:16:39.688Z,49.37
2023-12-15T22:19:08.747Z,49.83
2023-12-15T22:21:39.181Z,51.60
2023-12-15T22:24:09.278Z,48.10
2023-12-15T22:26:38.728Z,51.23
2023-12-15T22:29:07.183Z,51.87
2023-12-15T22:31:35.699Z,57.40
2023-12-15T22:34:04.568Z,58.57
2023-12-15T22:36:33.142Z,54.27
2023-12-15T22:39:01.618Z,57.73
2023-12-15T22:41:31.602Z,58.33
2023-12-15T22:44:00.634Z,52.60
2023-12-15T22:46:29.407Z,54.33
2023-12-15T22:48:58.408Z,57.97
2023-12-15T22:51:27.201Z,61.03
2023-12-15T22:53:55.873Z,62.97
2023-12-15T22:56:24.425Z,59.93
2023-12-15T22:58:55.200Z,62.07
2023-12-15T23:01:24.163Z,60.37
2023-12-15T23:03:52.694Z,65.30
2023-12-15T23:06:21.405Z,62.70
2023-12-15T23:08:49.878Z,70.17
2023-12-15T23:11:18.384Z,67.17
2023-12-15T23:13:46.904Z,65.23
2023-12-15T23:16:16.846Z,65.23
2023-12-15T23:18:46.046Z,64.57
2023-12-15T23:21:23.565Z,69.50
2023-12-15T23:23:58.305Z,68.87
2023-12-15T23:26:26.843Z,72.13
2023-12-15T23:28:55.330Z,70.10
2023-12-15T23:31:25.198Z,69.53
2023-12-15T23:33:53.782Z,70.93
2023-12-15T23:36:23.594Z,64.73
2023-12-15T23:38:52.097Z,71.37
2023-12-15T23:41:20.919Z,62.53
2023-12-15T23:43:49.684Z,61.03
2023-12-15T23:46:18.714Z,58.13
2023-12-15T23:48:48.866Z,56.63
2023-12-15T23:51:17.759Z,57.33
2023-12-15T23:53:46.377Z,60.60
2023-12-15T23:56:15.069Z,59.50
2023-12-15T23:58:44.252Z,58.13
